sensor_id;sensor_type;location;lat;lon;timestamp;P1;durP1;ratioP1;P2;durP2;ratioP2
41229;SDS011;26964;50.428;19.218;2023-04-03T00:00:59;6.2;;;3.7;;
41229;SDS011;26964;50.428;19.218;2023-04-03T00:01:59;7.6;;;4.0;;
41229;SDS011;26964;50.428;19.218;2023-04-03T00:03:00;6.5;;;3.9;;
41229;SDS011;26964;50.428;19.218;2023-04-03T00:03:59;6.1;;;4.0;;
41229;SDS011;26964;50.428;19.218;2023-04-03T00:04:59;6.4;;;3.7;;
41229;SDS011;26964;50.428;19.218;2023-04-03T00:05:59;6.3;;;3.9;;
41229;SDS011;26964;50.428;19.218;2023-04-03T00:06:59;5.9;;;4.2;;
41229;SDS011;26964;50.428;19.218;2023-04-03T00:07:59;5.5;;;3.9;;
41229;SDS011;26964;50.428;19.218;2023-04-03T00:08:59;5.0;;;3.6;;
41229;SDS011;26964;50.428;19.218;2023-04-03T00:09:59;5.5;;;4.2;;
41229;SDS011;26964;50.428;19.218;2023-04-03T00:10:59;6.9;;;4.1;;
41229;SDS011;26964;50.428;19.218;2023-04-03T00:11:59;5.2;;;4.0;;
41229;SDS011;26964;50.428;19.218;2023-04-03T00:12:59;5.3;;;4.1;;
41229;SDS011;26964;50.428;19.218;2023-04-03T00:13:59;6.0;;;4.4;;
41229;SDS011;26964;50.428;19.218;2023-04-03T00:14:59;6.7;;;4.1;;
41229;SDS011;26964;50.428;19.218;2023-04-03T00:15:59;7.1;;;4.4;;
41229;SDS011;26964;50.428;19.218;2023-04-03T00:16:59;6.0;;;4.3;;
41229;SDS011;26964;50.428;19.218;2023-04-03T00:17:59;6.1;;;4.2;;
41229;SDS011;26964;50.428;19.218;2023-04-03T00:18:59;7.3;;;4.5;;
41229;SDS011;26964;50.428;19.218;2023-04-03T00:19:59;6.2;;;4.2;;
41229;SDS011;26964;50.428;19.218;2023-04-03T00:20:59;5.9;;;3.9;;
41229;SDS011;26964;50.428;19.218;2023-04-03T00:21:59;6.8;;;4.1;;
41229;SDS011;26964;50.428;19.218;2023-04-03T00:22:59;7.0;;;4.3;;
41229;SDS011;26964;50.428;19.218;2023-04-03T00:23:59;7.4;;;4.7;;
41229;SDS011;26964;50.428;19.218;2023-04-03T00:24:59;6.6;;;4.7;;
41229;SDS011;26964;50.428;19.218;2023-04-03T00:25:59;7.4;;;4.2;;
41229;SDS011;26964;50.428;19.218;2023-04-03T00:26:59;6.1;;;4.2;;
41229;SDS011;26964;50.428;19.218;2023-04-03T00:27:59;5.6;;;4.2;;
41229;SDS011;26964;50.428;19.218;2023-04-03T00:28:59;6.0;;;4.5;;
41229;SDS011;26964;50.428;19.218;2023-04-03T00:29:59;7.3;;;5.0;;
41229;SDS011;26964;50.428;19.218;2023-04-03T00:30:59;6.5;;;4.8;;
41229;SDS011;26964;50.428;19.218;2023-04-03T00:31:59;7.4;;;4.5;;
41229;SDS011;26964;50.428;19.218;2023-04-03T00:32:59;7.2;;;4.5;;
41229;SDS011;26964;50.428;19.218;2023-04-03T00:33:59;6.5;;;4.5;;
41229;SDS011;26964;50.428;19.218;2023-04-03T00:34:59;7.2;;;5.0;;
41229;SDS011;26964;50.428;19.218;2023-04-03T00:35:59;6.0;;;4.5;;
41229;SDS011;26964;50.428;19.218;2023-04-03T00:36:59;10.4;;;5.2;;
41229;SDS011;26964;50.428;19.218;2023-04-03T00:37:59;6.3;;;4.9;;
41229;SDS011;26964;50.428;19.218;2023-04-03T00:38:59;6.4;;;4.7;;
41229;SDS011;26964;50.428;19.218;2023-04-03T00:39:59;8.2;;;5.3;;
41229;SDS011;26964;50.428;19.218;2023-04-03T00:40:59;7.0;;;5.2;;
41229;SDS011;26964;50.428;19.218;2023-04-03T00:41:59;7.1;;;5.4;;
41229;SDS011;26964;50.428;19.218;2023-04-03T00:43:05;8.8;;;5.7;;
41229;SDS011;26964;50.428;19.218;2023-04-03T00:43:59;7.8;;;5.6;;
41229;SDS011;26964;50.428;19.218;2023-04-03T00:45:59;8.6;;;6.5;;
41229;SDS011;26964;50.428;19.218;2023-04-03T00:46:59;10.5;;;5.9;;
41229;SDS011;26964;50.428;19.218;2023-04-03T00:47:59;9.5;;;6.6;;
41229;SDS011;26964;50.428;19.218;2023-04-03T00:48:59;8.9;;;6.8;;
41229;SDS011;26964;50.428;19.218;2023-04-03T00:49:59;8.4;;;6.7;;
41229;SDS011;26964;50.428;19.218;2023-04-03T00:50:59;9.0;;;6.6;;
41229;SDS011;26964;50.428;19.218;2023-04-03T00:51:59;9.1;;;7.0;;
41229;SDS011;26964;50.428;19.218;2023-04-03T00:52:59;9.1;;;7.1;;
41229;SDS011;26964;50.428;19.218;2023-04-03T00:54:00;10.5;;;7.3;;
41229;SDS011;26964;50.428;19.218;2023-04-03T00:55:00;9.0;;;6.8;;
41229;SDS011;26964;50.428;19.218;2023-04-03T00:55:59;10.4;;;7.6;;
41229;SDS011;26964;50.428;19.218;2023-04-03T00:56:59;10.1;;;7.4;;
41229;SDS011;26964;50.428;19.218;2023-04-03T00:57:59;11.9;;;8.5;;
41229;SDS011;26964;50.428;19.218;2023-04-03T00:59:00;10.2;;;7.9;;
41229;SDS011;26964;50.428;19.218;2023-04-03T01:00:00;9.6;;;7.4;;
41229;SDS011;26964;50.428;19.218;2023-04-03T01:00:59;9.4;;;7.5;;
41229;SDS011;26964;50.428;19.218;2023-04-03T01:01:59;12.3;;;8.4;;
41229;SDS011;26964;50.428;19.218;2023-04-03T01:02:59;10.0;;;8.2;;
41229;SDS011;26964;50.428;19.218;2023-04-03T01:03:59;10.3;;;8.1;;
41229;SDS011;26964;50.428;19.218;2023-04-03T01:04:59;10.7;;;7.7;;
41229;SDS011;26964;50.428;19.218;2023-04-03T01:05:59;11.0;;;8.7;;
41229;SDS011;26964;50.428;19.218;2023-04-03T01:07:00;11.8;;;8.5;;
41229;SDS011;26964;50.428;19.218;2023-04-03T01:07:59;12.1;;;8.7;;
41229;SDS011;26964;50.428;19.218;2023-04-03T01:08:59;10.5;;;8.3;;
41229;SDS011;26964;50.428;19.218;2023-04-03T01:09:59;12.2;;;8.3;;
41229;SDS011;26964;50.428;19.218;2023-04-03T01:10:59;13.9;;;8.5;;
41229;SDS011;26964;50.428;19.218;2023-04-03T01:12:59;10.7;;;8.1;;
41229;SDS011;26964;50.428;19.218;2023-04-03T01:13:59;11.5;;;8.9;;
41229;SDS011;26964;50.428;19.218;2023-04-03T01:14:59;11.5;;;8.4;;
41229;SDS011;26964;50.428;19.218;2023-04-03T01:16:00;11.2;;;8.8;;
41229;SDS011;26964;50.428;19.218;2023-04-03T01:16:59;12.6;;;8.9;;
41229;SDS011;26964;50.428;19.218;2023-04-03T01:17:59;12.2;;;9.0;;
41229;SDS011;26964;50.428;19.218;2023-04-03T01:18:59;11.9;;;8.9;;
41229;SDS011;26964;50.428;19.218;2023-04-03T01:23:02;13.1;;;9.1;;
41229;SDS011;26964;50.428;19.218;2023-04-03T01:24:02;11.3;;;9.2;;
41229;SDS011;26964;50.428;19.218;2023-04-03T01:24:59;11.0;;;8.3;;
41229;SDS011;26964;50.428;19.218;2023-04-03T01:25:59;11.6;;;8.6;;
41229;SDS011;26964;50.428;19.218;2023-04-03T01:26:59;10.4;;;8.5;;
41229;SDS011;26964;50.428;19.218;2023-04-03T01:27:59;11.7;;;8.9;;
41229;SDS011;26964;50.428;19.218;2023-04-03T01:28:59;10.5;;;8.6;;
41229;SDS011;26964;50.428;19.218;2023-04-03T01:29:59;11.2;;;8.6;;
41229;SDS011;26964;50.428;19.218;2023-04-03T01:31:01;12.5;;;9.5;;
41229;SDS011;26964;50.428;19.218;2023-04-03T01:32:00;11.4;;;7.9;;
41229;SDS011;26964;50.428;19.218;2023-04-03T01:32:59;11.5;;;8.3;;
41229;SDS011;26964;50.428;19.218;2023-04-03T01:33:59;10.6;;;8.2;;
41229;SDS011;26964;50.428;19.218;2023-04-03T01:34:59;11.2;;;8.4;;
41229;SDS011;26964;50.428;19.218;2023-04-03T01:35:59;11.9;;;8.3;;
41229;SDS011;26964;50.428;19.218;2023-04-03T01:36:59;13.7;;;9.7;;
41229;SDS011;26964;50.428;19.218;2023-04-03T01:37:59;12.4;;;8.6;;
41229;SDS011;26964;50.428;19.218;2023-04-03T01:38:59;10.4;;;8.2;;
41229;SDS011;26964;50.428;19.218;2023-04-03T01:39:59;12.2;;;8.7;;
41229;SDS011;26964;50.428;19.218;2023-04-03T01:40:59;10.8;;;8.1;;
41229;SDS011;26964;50.428;19.218;2023-04-03T01:41:59;12.5;;;8.1;;
41229;SDS011;26964;50.428;19.218;2023-04-03T01:42:59;13.5;;;8.9;;
41229;SDS011;26964;50.428;19.218;2023-04-03T01:43:59;12.0;;;7.9;;
41229;SDS011;26964;50.428;19.218;2023-04-03T01:44:59;11.5;;;8.3;;
41229;SDS011;26964;50.428;19.218;2023-04-03T01:45:59;15.2;;;8.5;;
41229;SDS011;26964;50.428;19.218;2023-04-03T01:46:59;11.4;;;7.6;;
41229;SDS011;26964;50.428;19.218;2023-04-03T01:47:59;10.6;;;7.9;;
41229;SDS011;26964;50.428;19.218;2023-04-03T01:48:59;11.0;;;7.9;;
41229;SDS011;26964;50.428;19.218;2023-04-03T01:49:59;10.4;;;7.8;;
41229;SDS011;26964;50.428;19.218;2023-04-03T01:50:59;12.8;;;8.2;;
41229;SDS011;26964;50.428;19.218;2023-04-03T01:51:59;11.0;;;7.6;;
41229;SDS011;26964;50.428;19.218;2023-04-03T01:52:59;12.4;;;7.6;;
41229;SDS011;26964;50.428;19.218;2023-04-03T01:53:59;10.7;;;7.3;;
41229;SDS011;26964;50.428;19.218;2023-04-03T01:54:59;11.0;;;7.6;;
41229;SDS011;26964;50.428;19.218;2023-04-03T01:55:59;9.4;;;6.8;;
41229;SDS011;26964;50.428;19.218;2023-04-03T01:56:59;10.4;;;7.2;;
41229;SDS011;26964;50.428;19.218;2023-04-03T01:57:59;9.8;;;6.6;;
41229;SDS011;26964;50.428;19.218;2023-04-03T01:58:59;11.9;;;7.4;;
41229;SDS011;26964;50.428;19.218;2023-04-03T01:59:59;9.9;;;7.0;;
41229;SDS011;26964;50.428;19.218;2023-04-03T02:00:59;9.6;;;7.1;;
41229;SDS011;26964;50.428;19.218;2023-04-03T02:01:59;11.1;;;7.1;;
41229;SDS011;26964;50.428;19.218;2023-04-03T02:02:59;9.0;;;6.5;;
41229;SDS011;26964;50.428;19.218;2023-04-03T02:03:59;9.1;;;6.3;;
41229;SDS011;26964;50.428;19.218;2023-04-03T02:04:59;10.0;;;6.6;;
41229;SDS011;26964;50.428;19.218;2023-04-03T02:05:59;9.3;;;6.3;;
41229;SDS011;26964;50.428;19.218;2023-04-03T02:06:59;8.9;;;6.6;;
41229;SDS011;26964;50.428;19.218;2023-04-03T02:07:59;8.7;;;6.0;;
41229;SDS011;26964;50.428;19.218;2023-04-03T02:08:59;8.3;;;5.7;;
41229;SDS011;26964;50.428;19.218;2023-04-03T02:09:59;8.8;;;5.7;;
41229;SDS011;26964;50.428;19.218;2023-04-03T02:10:59;9.4;;;5.8;;
41229;SDS011;26964;50.428;19.218;2023-04-03T02:11:59;10.2;;;5.8;;
41229;SDS011;26964;50.428;19.218;2023-04-03T02:12:59;9.8;;;6.3;;
41229;SDS011;26964;50.428;19.218;2023-04-03T02:13:59;9.6;;;5.4;;
41229;SDS011;26964;50.428;19.218;2023-04-03T02:14:59;7.4;;;5.1;;
41229;SDS011;26964;50.428;19.218;2023-04-03T02:15:59;8.6;;;5.4;;
41229;SDS011;26964;50.428;19.218;2023-04-03T02:16:59;8.8;;;5.9;;
41229;SDS011;26964;50.428;19.218;2023-04-03T02:17:59;8.2;;;5.3;;
41229;SDS011;26964;50.428;19.218;2023-04-03T02:18:59;10.2;;;5.9;;
41229;SDS011;26964;50.428;19.218;2023-04-03T02:19:59;10.4;;;5.4;;
41229;SDS011;26964;50.428;19.218;2023-04-03T02:20:59;8.7;;;5.2;;
41229;SDS011;26964;50.428;19.218;2023-04-03T02:21:59;9.2;;;5.0;;
41229;SDS011;26964;50.428;19.218;2023-04-03T02:22:59;6.6;;;4.4;;
41229;SDS011;26964;50.428;19.218;2023-04-03T02:23:59;6.9;;;4.5;;
41229;SDS011;26964;50.428;19.218;2023-04-03T02:24:59;7.4;;;4.4;;
41229;SDS011;26964;50.428;19.218;2023-04-03T02:26:59;7.8;;;4.5;;
41229;SDS011;26964;50.428;19.218;2023-04-03T02:27:59;9.0;;;4.8;;
41229;SDS011;26964;50.428;19.218;2023-04-03T02:28:59;7.0;;;4.5;;
41229;SDS011;26964;50.428;19.218;2023-04-03T02:29:59;7.1;;;4.7;;
41229;SDS011;26964;50.428;19.218;2023-04-03T02:30:59;8.9;;;5.1;;
41229;SDS011;26964;50.428;19.218;2023-04-03T02:31:59;8.9;;;5.1;;
41229;SDS011;26964;50.428;19.218;2023-04-03T02:32:59;7.9;;;4.7;;
41229;SDS011;26964;50.428;19.218;2023-04-03T02:33:59;9.4;;;5.6;;
41229;SDS011;26964;50.428;19.218;2023-04-03T02:34:59;7.4;;;4.8;;
41229;SDS011;26964;50.428;19.218;2023-04-03T02:35:59;7.9;;;5.2;;
41229;SDS011;26964;50.428;19.218;2023-04-03T02:36:59;8.5;;;5.1;;
41229;SDS011;26964;50.428;19.218;2023-04-03T02:37:59;8.3;;;5.2;;
41229;SDS011;26964;50.428;19.218;2023-04-03T02:38:59;8.5;;;5.0;;
41229;SDS011;26964;50.428;19.218;2023-04-03T02:39:59;9.2;;;5.6;;
41229;SDS011;26964;50.428;19.218;2023-04-03T02:40:59;9.6;;;6.2;;
41229;SDS011;26964;50.428;19.218;2023-04-03T02:41:59;8.5;;;6.0;;
41229;SDS011;26964;50.428;19.218;2023-04-03T02:42:59;8.5;;;5.3;;
41229;SDS011;26964;50.428;19.218;2023-04-03T02:43:59;12.3;;;5.6;;
41229;SDS011;26964;50.428;19.218;2023-04-03T02:44:59;9.4;;;5.7;;
41229;SDS011;26964;50.428;19.218;2023-04-03T02:45:59;8.8;;;5.6;;
41229;SDS011;26964;50.428;19.218;2023-04-03T02:46:59;9.0;;;5.6;;
41229;SDS011;26964;50.428;19.218;2023-04-03T02:47:59;7.6;;;5.8;;
41229;SDS011;26964;50.428;19.218;2023-04-03T02:48:59;9.0;;;6.2;;
41229;SDS011;26964;50.428;19.218;2023-04-03T02:49:59;10.2;;;6.2;;
41229;SDS011;26964;50.428;19.218;2023-04-03T02:50:59;9.9;;;5.8;;
41229;SDS011;26964;50.428;19.218;2023-04-03T02:51:59;11.3;;;6.4;;
41229;SDS011;26964;50.428;19.218;2023-04-03T02:52:59;9.3;;;6.6;;
41229;SDS011;26964;50.428;19.218;2023-04-03T02:53:59;8.1;;;5.8;;
41229;SDS011;26964;50.428;19.218;2023-04-03T02:54:59;10.5;;;6.5;;
41229;SDS011;26964;50.428;19.218;2023-04-03T02:55:59;10.3;;;6.4;;
41229;SDS011;26964;50.428;19.218;2023-04-03T02:56:59;10.5;;;6.0;;
41229;SDS011;26964;50.428;19.218;2023-04-03T02:57:59;11.2;;;6.6;;
41229;SDS011;26964;50.428;19.218;2023-04-03T02:58:59;10.6;;;6.3;;
41229;SDS011;26964;50.428;19.218;2023-04-03T02:59:59;9.6;;;6.0;;
41229;SDS011;26964;50.428;19.218;2023-04-03T03:00:59;10.0;;;6.8;;
41229;SDS011;26964;50.428;19.218;2023-04-03T03:01:59;12.4;;;7.3;;
41229;SDS011;26964;50.428;19.218;2023-04-03T03:02:59;9.9;;;7.0;;
41229;SDS011;26964;50.428;19.218;2023-04-03T03:03:59;11.8;;;6.4;;
41229;SDS011;26964;50.428;19.218;2023-04-03T03:04:59;10.5;;;6.9;;
41229;SDS011;26964;50.428;19.218;2023-04-03T03:06:01;10.5;;;6.3;;
41229;SDS011;26964;50.428;19.218;2023-04-03T03:06:59;10.9;;;7.2;;
41229;SDS011;26964;50.428;19.218;2023-04-03T03:07:59;12.2;;;7.1;;
41229;SDS011;26964;50.428;19.218;2023-04-03T03:08:59;13.1;;;7.9;;
41229;SDS011;26964;50.428;19.218;2023-04-03T03:09:59;12.6;;;7.0;;
41229;SDS011;26964;50.428;19.218;2023-04-03T03:10:59;14.4;;;7.1;;
41229;SDS011;26964;50.428;19.218;2023-04-03T03:11:59;11.7;;;7.1;;
41229;SDS011;26964;50.428;19.218;2023-04-03T03:12:59;11.6;;;7.1;;
41229;SDS011;26964;50.428;19.218;2023-04-03T03:13:59;13.8;;;7.1;;
41229;SDS011;26964;50.428;19.218;2023-04-03T03:14:59;11.3;;;6.9;;
41229;SDS011;26964;50.428;19.218;2023-04-03T03:15:59;11.8;;;7.0;;
41229;SDS011;26964;50.428;19.218;2023-04-03T03:16:59;12.1;;;7.1;;
41229;SDS011;26964;50.428;19.218;2023-04-03T03:17:59;12.2;;;6.5;;
41229;SDS011;26964;50.428;19.218;2023-04-03T03:18:59;10.7;;;5.8;;
41229;SDS011;26964;50.428;19.218;2023-04-03T03:19:59;13.3;;;6.4;;
41229;SDS011;26964;50.428;19.218;2023-04-03T03:21:00;10.4;;;5.7;;
41229;SDS011;26964;50.428;19.218;2023-04-03T03:21:59;9.9;;;6.4;;
41229;SDS011;26964;50.428;19.218;2023-04-03T03:22:59;10.1;;;6.0;;
41229;SDS011;26964;50.428;19.218;2023-04-03T03:23:59;9.7;;;6.4;;
41229;SDS011;26964;50.428;19.218;2023-04-03T03:24:59;11.8;;;6.0;;
41229;SDS011;26964;50.428;19.218;2023-04-03T03:25:59;13.4;;;6.5;;
41229;SDS011;26964;50.428;19.218;2023-04-03T03:26:59;11.1;;;5.5;;
41229;SDS011;26964;50.428;19.218;2023-04-03T03:27:59;11.9;;;6.4;;
41229;SDS011;26964;50.428;19.218;2023-04-03T03:28:59;11.8;;;5.4;;
41229;SDS011;26964;50.428;19.218;2023-04-03T03:29:59;10.2;;;5.8;;
41229;SDS011;26964;50.428;19.218;2023-04-03T03:30:59;10.3;;;5.5;;
41229;SDS011;26964;50.428;19.218;2023-04-03T03:31:59;8.2;;;4.8;;
41229;SDS011;26964;50.428;19.218;2023-04-03T03:32:59;8.9;;;4.9;;
41229;SDS011;26964;50.428;19.218;2023-04-03T03:33:59;8.2;;;4.3;;
41229;SDS011;26964;50.428;19.218;2023-04-03T03:34:59;7.9;;;4.6;;
41229;SDS011;26964;50.428;19.218;2023-04-03T03:35:59;7.9;;;4.4;;
41229;SDS011;26964;50.428;19.218;2023-04-03T03:36:59;8.0;;;4.6;;
41229;SDS011;26964;50.428;19.218;2023-04-03T03:37:59;9.4;;;4.8;;
41229;SDS011;26964;50.428;19.218;2023-04-03T03:38:59;7.5;;;4.3;;
41229;SDS011;26964;50.428;19.218;2023-04-03T03:39:59;7.5;;;4.8;;
41229;SDS011;26964;50.428;19.218;2023-04-03T03:40:59;7.2;;;3.9;;
41229;SDS011;26964;50.428;19.218;2023-04-03T03:41:59;10.2;;;4.7;;
41229;SDS011;26964;50.428;19.218;2023-04-03T03:42:59;9.8;;;4.1;;
41229;SDS011;26964;50.428;19.218;2023-04-03T03:43:59;10.5;;;4.5;;
41229;SDS011;26964;50.428;19.218;2023-04-03T03:44:59;7.3;;;3.6;;
41229;SDS011;26964;50.428;19.218;2023-04-03T03:45:59;7.0;;;3.6;;
41229;SDS011;26964;50.428;19.218;2023-04-03T03:46:59;7.4;;;3.7;;
41229;SDS011;26964;50.428;19.218;2023-04-03T03:47:59;8.0;;;3.9;;
41229;SDS011;26964;50.428;19.218;2023-04-03T03:48:59;7.5;;;3.9;;
41229;SDS011;26964;50.428;19.218;2023-04-03T03:49:59;6.2;;;3.8;;
41229;SDS011;26964;50.428;19.218;2023-04-03T03:50:59;11.8;;;4.0;;
41229;SDS011;26964;50.428;19.218;2023-04-03T03:51:59;8.7;;;4.2;;
41229;SDS011;26964;50.428;19.218;2023-04-03T03:52:59;7.8;;;4.5;;
41229;SDS011;26964;50.428;19.218;2023-04-03T03:53:59;9.0;;;3.9;;
41229;SDS011;26964;50.428;19.218;2023-04-03T03:54:59;8.3;;;3.8;;
41229;SDS011;26964;50.428;19.218;2023-04-03T03:55:59;7.1;;;3.7;;
41229;SDS011;26964;50.428;19.218;2023-04-03T03:56:59;9.2;;;3.8;;
41229;SDS011;26964;50.428;19.218;2023-04-03T03:57:59;6.4;;;3.6;;
41229;SDS011;26964;50.428;19.218;2023-04-03T03:58:59;8.4;;;3.7;;
41229;SDS011;26964;50.428;19.218;2023-04-03T03:59:59;6.3;;;3.6;;
41229;SDS011;26964;50.428;19.218;2023-04-03T04:01:09;8.1;;;4.1;;
41229;SDS011;26964;50.428;19.218;2023-04-03T04:01:59;9.0;;;3.9;;
41229;SDS011;26964;50.428;19.218;2023-04-03T04:02:59;9.7;;;4.0;;
41229;SDS011;26964;50.428;19.218;2023-04-03T04:03:59;6.6;;;3.2;;
41229;SDS011;26964;50.428;19.218;2023-04-03T04:05:09;7.0;;;3.7;;
41229;SDS011;26964;50.428;19.218;2023-04-03T04:05:59;6.9;;;3.7;;
41229;SDS011;26964;50.428;19.218;2023-04-03T04:06:59;8.0;;;4.0;;
41229;SDS011;26964;50.428;19.218;2023-04-03T04:07:59;8.0;;;3.6;;
41229;SDS011;26964;50.428;19.218;2023-04-03T04:08:59;9.2;;;3.6;;
41229;SDS011;26964;50.428;19.218;2023-04-03T04:09:59;7.9;;;3.5;;
41229;SDS011;26964;50.428;19.218;2023-04-03T04:10:59;7.4;;;3.7;;
41229;SDS011;26964;50.428;19.218;2023-04-03T04:11:59;8.7;;;3.5;;
41229;SDS011;26964;50.428;19.218;2023-04-03T04:12:59;7.8;;;4.0;;
41229;SDS011;26964;50.428;19.218;2023-04-03T04:13:59;7.4;;;3.2;;
41229;SDS011;26964;50.428;19.218;2023-04-03T04:14:59;6.4;;;3.5;;
41229;SDS011;26964;50.428;19.218;2023-04-03T04:15:59;6.9;;;3.5;;
41229;SDS011;26964;50.428;19.218;2023-04-03T04:16:59;7.9;;;3.9;;
41229;SDS011;26964;50.428;19.218;2023-04-03T04:17:59;8.5;;;3.6;;
41229;SDS011;26964;50.428;19.218;2023-04-03T04:18:59;9.3;;;4.5;;
41229;SDS011;26964;50.428;19.218;2023-04-03T04:19:59;8.0;;;3.9;;
41229;SDS011;26964;50.428;19.218;2023-04-03T04:20:59;7.7;;;4.0;;
41229;SDS011;26964;50.428;19.218;2023-04-03T04:21:59;7.8;;;4.0;;
41229;SDS011;26964;50.428;19.218;2023-04-03T04:22:59;8.6;;;3.7;;
41229;SDS011;26964;50.428;19.218;2023-04-03T04:23:59;11.7;;;4.3;;
41229;SDS011;26964;50.428;19.218;2023-04-03T04:24:59;6.9;;;4.4;;
41229;SDS011;26964;50.428;19.218;2023-04-03T04:25:59;7.8;;;4.3;;
41229;SDS011;26964;50.428;19.218;2023-04-03T04:26:59;9.2;;;4.5;;
41229;SDS011;26964;50.428;19.218;2023-04-03T04:27:59;7.7;;;4.7;;
41229;SDS011;26964;50.428;19.218;2023-04-03T04:28:59;6.9;;;3.8;;
41229;SDS011;26964;50.428;19.218;2023-04-03T04:29:59;8.5;;;4.3;;
41229;SDS011;26964;50.428;19.218;2023-04-03T04:31:01;15.9;;;5.1;;
41229;SDS011;26964;50.428;19.218;2023-04-03T04:32:00;9.2;;;4.8;;
41229;SDS011;26964;50.428;19.218;2023-04-03T04:32:59;7.5;;;3.9;;
41229;SDS011;26964;50.428;19.218;2023-04-03T04:33:59;8.2;;;4.3;;
41229;SDS011;26964;50.428;19.218;2023-04-03T04:35:00;9.4;;;4.8;;
41229;SDS011;26964;50.428;19.218;2023-04-03T04:35:59;7.2;;;4.4;;
41229;SDS011;26964;50.428;19.218;2023-04-03T04:36:59;9.1;;;3.9;;
41229;SDS011;26964;50.428;19.218;2023-04-03T04:37:59;10.2;;;4.8;;
41229;SDS011;26964;50.428;19.218;2023-04-03T04:38:59;9.5;;;4.5;;
41229;SDS011;26964;50.428;19.218;2023-04-03T04:39:59;8.0;;;4.4;;
41229;SDS011;26964;50.428;19.218;2023-04-03T04:40:59;7.9;;;4.1;;
41229;SDS011;26964;50.428;19.218;2023-04-03T04:41:59;8.8;;;4.6;;
41229;SDS011;26964;50.428;19.218;2023-04-03T04:42:59;8.3;;;4.2;;
41229;SDS011;26964;50.428;19.218;2023-04-03T04:43:59;7.0;;;4.1;;
41229;SDS011;26964;50.428;19.218;2023-04-03T04:44:59;9.7;;;3.9;;
41229;SDS011;26964;50.428;19.218;2023-04-03T04:46:00;9.3;;;4.6;;
41229;SDS011;26964;50.428;19.218;2023-04-03T04:46:59;9.0;;;4.3;;
41229;SDS011;26964;50.428;19.218;2023-04-03T04:47:59;7.5;;;4.0;;
41229;SDS011;26964;50.428;19.218;2023-04-03T04:48:59;9.4;;;4.4;;
41229;SDS011;26964;50.428;19.218;2023-04-03T04:49:59;9.1;;;4.9;;
41229;SDS011;26964;50.428;19.218;2023-04-03T04:50:59;8.1;;;4.5;;
41229;SDS011;26964;50.428;19.218;2023-04-03T04:51:59;8.2;;;4.6;;
41229;SDS011;26964;50.428;19.218;2023-04-03T04:52:59;9.7;;;4.6;;
41229;SDS011;26964;50.428;19.218;2023-04-03T04:53:59;8.1;;;4.5;;
41229;SDS011;26964;50.428;19.218;2023-04-03T04:54:59;7.8;;;4.2;;
41229;SDS011;26964;50.428;19.218;2023-04-03T04:55:59;9.4;;;4.6;;
41229;SDS011;26964;50.428;19.218;2023-04-03T04:56:59;10.0;;;5.5;;
41229;SDS011;26964;50.428;19.218;2023-04-03T04:57:59;8.8;;;4.7;;
41229;SDS011;26964;50.428;19.218;2023-04-03T04:58:59;10.1;;;4.4;;
41229;SDS011;26964;50.428;19.218;2023-04-03T04:59:59;8.6;;;4.6;;
41229;SDS011;26964;50.428;19.218;2023-04-03T05:00:59;10.9;;;5.1;;
41229;SDS011;26964;50.428;19.218;2023-04-03T05:01:59;11.0;;;5.2;;
41229;SDS011;26964;50.428;19.218;2023-04-03T05:02:59;8.8;;;4.9;;
41229;SDS011;26964;50.428;19.218;2023-04-03T05:03:59;9.9;;;5.0;;
41229;SDS011;26964;50.428;19.218;2023-04-03T05:04:59;10.1;;;5.0;;
41229;SDS011;26964;50.428;19.218;2023-04-03T05:05:59;10.3;;;5.3;;
41229;SDS011;26964;50.428;19.218;2023-04-03T05:06:59;10.7;;;5.3;;
41229;SDS011;26964;50.428;19.218;2023-04-03T05:07:59;9.2;;;4.9;;
41229;SDS011;26964;50.428;19.218;2023-04-03T05:08:59;8.6;;;4.8;;
41229;SDS011;26964;50.428;19.218;2023-04-03T05:09:58;9.6;;;5.2;;
41229;SDS011;26964;50.428;19.218;2023-04-03T05:10:59;13.9;;;5.4;;
41229;SDS011;26964;50.428;19.218;2023-04-03T05:11:59;12.0;;;4.8;;
41229;SDS011;26964;50.428;19.218;2023-04-03T05:12:59;9.7;;;5.4;;
41229;SDS011;26964;50.428;19.218;2023-04-03T05:13:59;12.8;;;5.5;;
41229;SDS011;26964;50.428;19.218;2023-04-03T05:14:59;10.3;;;5.4;;
41229;SDS011;26964;50.428;19.218;2023-04-03T05:15:58;9.4;;;5.6;;
41229;SDS011;26964;50.428;19.218;2023-04-03T05:16:59;10.0;;;5.3;;
41229;SDS011;26964;50.428;19.218;2023-04-03T05:17:59;8.4;;;5.3;;
41229;SDS011;26964;50.428;19.218;2023-04-03T05:18:58;7.6;;;4.8;;
41229;SDS011;26964;50.428;19.218;2023-04-03T05:19:59;9.4;;;4.5;;
41229;SDS011;26964;50.428;19.218;2023-04-03T05:20:59;8.9;;;5.0;;
41229;SDS011;26964;50.428;19.218;2023-04-03T05:21:58;11.4;;;5.5;;
41229;SDS011;26964;50.428;19.218;2023-04-03T05:22:59;9.3;;;5.1;;
41229;SDS011;26964;50.428;19.218;2023-04-03T05:23:59;8.6;;;4.5;;
41229;SDS011;26964;50.428;19.218;2023-04-03T05:24:59;9.3;;;4.9;;
41229;SDS011;26964;50.428;19.218;2023-04-03T05:25:58;9.7;;;5.4;;
41229;SDS011;26964;50.428;19.218;2023-04-03T05:26:58;9.2;;;4.7;;
41229;SDS011;26964;50.428;19.218;2023-04-03T05:27:59;12.8;;;5.4;;
41229;SDS011;26964;50.428;19.218;2023-04-03T05:28:59;8.6;;;4.8;;
41229;SDS011;26964;50.428;19.218;2023-04-03T05:29:58;10.6;;;4.2;;
41229;SDS011;26964;50.428;19.218;2023-04-03T05:30:59;9.0;;;4.6;;
41229;SDS011;26964;50.428;19.218;2023-04-03T05:31:58;10.7;;;4.6;;
41229;SDS011;26964;50.428;19.218;2023-04-03T05:32:59;7.8;;;4.5;;
41229;SDS011;26964;50.428;19.218;2023-04-03T05:33:59;6.9;;;4.3;;
41229;SDS011;26964;50.428;19.218;2023-04-03T05:34:58;9.5;;;4.8;;
41229;SDS011;26964;50.428;19.218;2023-04-03T05:36:59;9.0;;;5.2;;
41229;SDS011;26964;50.428;19.218;2023-04-03T05:37:58;10.1;;;4.7;;
41229;SDS011;26964;50.428;19.218;2023-04-03T05:38:59;9.3;;;4.3;;
41229;SDS011;26964;50.428;19.218;2023-04-03T05:39:58;8.9;;;4.8;;
41229;SDS011;26964;50.428;19.218;2023-04-03T05:40:58;9.5;;;5.0;;
41229;SDS011;26964;50.428;19.218;2023-04-03T05:41:59;8.1;;;4.3;;
41229;SDS011;26964;50.428;19.218;2023-04-03T05:42:58;10.2;;;4.6;;
41229;SDS011;26964;50.428;19.218;2023-04-03T05:43:59;10.3;;;4.9;;
41229;SDS011;26964;50.428;19.218;2023-04-03T05:44:58;11.2;;;4.4;;
41229;SDS011;26964;50.428;19.218;2023-04-03T05:45:58;10.3;;;4.8;;
41229;SDS011;26964;50.428;19.218;2023-04-03T05:46:58;11.4;;;4.8;;
41229;SDS011;26964;50.428;19.218;2023-04-03T05:47:58;9.5;;;4.4;;
41229;SDS011;26964;50.428;19.218;2023-04-03T05:48:58;8.3;;;4.4;;
41229;SDS011;26964;50.428;19.218;2023-04-03T05:49:59;9.5;;;4.1;;
41229;SDS011;26964;50.428;19.218;2023-04-03T05:50:58;12.3;;;4.5;;
41229;SDS011;26964;50.428;19.218;2023-04-03T05:51:59;12.5;;;5.1;;
41229;SDS011;26964;50.428;19.218;2023-04-03T05:52:59;10.0;;;5.2;;
41229;SDS011;26964;50.428;19.218;2023-04-03T05:54:00;11.2;;;5.1;;
41229;SDS011;26964;50.428;19.218;2023-04-03T05:54:58;10.9;;;5.1;;
41229;SDS011;26964;50.428;19.218;2023-04-03T05:55:58;12.1;;;4.7;;
41229;SDS011;26964;50.428;19.218;2023-04-03T05:56:58;9.5;;;4.1;;
41229;SDS011;26964;50.428;19.218;2023-04-03T05:57:58;10.0;;;5.2;;
41229;SDS011;26964;50.428;19.218;2023-04-03T05:58:58;12.9;;;4.7;;
41229;SDS011;26964;50.428;19.218;2023-04-03T05:59:58;9.5;;;4.8;;
41229;SDS011;26964;50.428;19.218;2023-04-03T06:00:59;8.8;;;4.6;;
41229;SDS011;26964;50.428;19.218;2023-04-03T06:01:58;10.4;;;4.6;;
41229;SDS011;26964;50.428;19.218;2023-04-03T06:02:58;12.4;;;5.2;;
41229;SDS011;26964;50.428;19.218;2023-04-03T06:03:58;9.2;;;4.6;;
41229;SDS011;26964;50.428;19.218;2023-04-03T06:04:58;9.3;;;4.8;;
41229;SDS011;26964;50.428;19.218;2023-04-03T06:05:58;15.1;;;5.0;;
41229;SDS011;26964;50.428;19.218;2023-04-03T06:06:59;11.6;;;4.7;;
41229;SDS011;26964;50.428;19.218;2023-04-03T06:08:03;8.7;;;4.2;;
41229;SDS011;26964;50.428;19.218;2023-04-03T06:08:59;9.9;;;4.1;;
41229;SDS011;26964;50.428;19.218;2023-04-03T06:09:58;8.2;;;4.1;;
41229;SDS011;26964;50.428;19.218;2023-04-03T06:10:58;9.5;;;3.9;;
41229;SDS011;26964;50.428;19.218;2023-04-03T06:11:59;9.7;;;3.9;;